AVA9743 SKCG-SKBO
Flight info
| Callsign | AVA9743 |
|---|---|
| Flight time | N/A |
| Altitude | 35000 |
| Route | ILMIK2A AKPEK UQ121 ISVAT ISVAT5E |
| Aircraft | A320/M-SDE3FGHIRWY/LB1 |
Departure
| Time | 2026-04-27 00:20 |
|---|---|
| Airport | Rafael Nuñez International Airport (SKCG) |
Arrival
| Time | N/A |
|---|---|
| Airport | El Dorado International Airport (SKBO) |
| Time | Latitude | Longitude | Altitude | Speed | Heading |
|---|---|---|---|---|---|
| 2026-04-26 23:29 | 10.44523 | -75.51565 | 14 ft | 0 kts | 271° |
| 2026-04-27 00:07 | 10.44523 | -75.51561 | 14 ft | 2 kts | 271° |
| 2026-04-27 00:07 | 10.44523 | -75.51542 | 6 ft | 3 kts | 271° |
| 2026-04-27 00:08 | 10.44523 | -75.51523 | 14 ft | 3 kts | 264° |
| 2026-04-27 00:08 | 10.44527 | -75.51504 | 14 ft | 3 kts | 241° |
| 2026-04-27 00:08 | 10.44538 | -75.51487 | 14 ft | 3 kts | 221° |
| 2026-04-27 00:08 | 10.44554 | -75.51475 | 15 ft | 3 kts | 207° |
| 2026-04-27 00:09 | 10.44573 | -75.51468 | 17 ft | 3 kts | 192° |
| 2026-04-27 00:09 | 10.44585 | -75.51465 | 14 ft | 0 kts | 183° |
| 2026-04-27 00:09 | 10.44574 | -75.51464 | 14 ft | 3 kts | 166° |
| 2026-04-27 00:09 | 10.44560 | -75.51452 | 14 ft | 3 kts | 133° |
| 2026-04-27 00:10 | 10.44551 | -75.51434 | 15 ft | 3 kts | 111° |
| 2026-04-27 00:10 | 10.44547 | -75.51414 | 14 ft | 3 kts | 97° |
| 2026-04-27 00:10 | 10.44546 | -75.51399 | 14 ft | 1 kts | 91° |
| 2026-04-27 00:14 | 10.44546 | -75.51388 | 14 ft | 9 kts | 91° |
| 2026-04-27 00:14 | 10.44503 | -75.51291 | 15 ft | 17 kts | 156° |
| 2026-04-27 00:14 | 10.44394 | -75.51285 | 15 ft | 15 kts | 182° |
| 2026-04-27 00:15 | 10.44276 | -75.51290 | 13 ft | 20 kts | 182° |
| 2026-04-27 00:15 | 10.44140 | -75.51296 | 12 ft | 19 kts | 182° |
| 2026-04-27 00:15 | 10.44017 | -75.51301 | 12 ft | 16 kts | 182° |
| 2026-04-27 00:15 | 10.43911 | -75.51306 | 13 ft | 14 kts | 182° |
| 2026-04-27 00:16 | 10.43820 | -75.51310 | 13 ft | 12 kts | 181° |
| 2026-04-27 00:16 | 10.43737 | -75.51312 | 13 ft | 11 kts | 181° |
| 2026-04-27 00:16 | 10.43665 | -75.51315 | 13 ft | 10 kts | 182° |
| 2026-04-27 00:16 | 10.43604 | -75.51318 | 14 ft | 7 kts | 182° |
| 2026-04-27 00:17 | 10.43562 | -75.51320 | 15 ft | 5 kts | 182° |
| 2026-04-27 00:17 | 10.43520 | -75.51322 | 16 ft | 10 kts | 183° |
| 2026-04-27 00:17 | 10.43413 | -75.51327 | 17 ft | 21 kts | 183° |
| 2026-04-27 00:17 | 10.43268 | -75.51331 | 17 ft | 18 kts | 176° |
| 2026-04-27 00:18 | 10.43175 | -75.51262 | 16 ft | 16 kts | 137° |
| 2026-04-27 00:18 | 10.43082 | -75.51248 | 16 ft | 13 kts | 226° |
| 2026-04-27 00:18 | 10.43077 | -75.51265 | 16 ft | 0 kts | 259° |
| 2026-04-27 00:19 | 10.43077 | -75.51269 | 16 ft | 4 kts | 261° |
| 2026-04-27 00:19 | 10.43083 | -75.51321 | 18 ft | 7 kts | 301° |
| 2026-04-27 00:19 | 10.43125 | -75.51337 | 16 ft | 3 kts | 354° |
| 2026-04-27 00:19 | 10.43150 | -75.51339 | 16 ft | 9 kts | 359° |
| 2026-04-27 00:20 | 10.43464 | -75.51326 | 17 ft | 81 kts | 2° |
| 2026-04-27 00:20 | 10.44237 | -75.51290 | 13 ft | 138 kts | 2° |
| 2026-04-27 00:20 | 10.45308 | -75.51233 | 325 ft | 159 kts | 2° |
| 2026-04-27 00:20 | 10.46381 | -75.51183 | 1030 ft | 155 kts | 1° |
| 2026-04-27 00:21 | 10.47454 | -75.51144 | 1720 ft | 154 kts | 3° |
| 2026-04-27 00:21 | 10.48570 | -75.51102 | 2126 ft | 169 kts | 4° |
| 2026-04-27 00:21 | 10.49814 | -75.50992 | 2369 ft | 191 kts | 17° |
| 2026-04-27 00:21 | 10.50855 | -75.50111 | 2612 ft | 211 kts | 63° |
| 2026-04-27 00:22 | 10.50997 | -75.48624 | 2998 ft | 227 kts | 101° |
| 2026-04-27 00:22 | 10.50280 | -75.47109 | 3325 ft | 254 kts | 131° |
| 2026-04-27 00:22 | 10.48723 | -75.46157 | 3803 ft | 273 kts | 168° |
| 2026-04-27 00:22 | 10.46802 | -75.46137 | 4545 ft | 279 kts | 186° |
| 2026-04-27 00:23 | 10.44870 | -75.46378 | 5393 ft | 281 kts | 188° |
| 2026-04-27 00:23 | 10.42930 | -75.46683 | 6231 ft | 283 kts | 189° |
| 2026-04-27 00:23 | 10.40976 | -75.47003 | 6996 ft | 286 kts | 190° |
| 2026-04-27 00:23 | 10.38999 | -75.47321 | 7749 ft | 289 kts | 189° |
| 2026-04-27 00:24 | 10.36998 | -75.47632 | 8506 ft | 292 kts | 189° |
| 2026-04-27 00:24 | 10.35007 | -75.47933 | 9249 ft | 295 kts | 188° |
| 2026-04-27 00:24 | 10.32966 | -75.48233 | 9998 ft | 297 kts | 188° |
| 2026-04-27 00:24 | 10.30887 | -75.48532 | 10448 ft | 311 kts | 188° |
| 2026-04-27 00:25 | 10.28665 | -75.48850 | 10598 ft | 334 kts | 188° |
| 2026-04-27 00:25 | 10.26286 | -75.49192 | 10722 ft | 356 kts | 188° |
| 2026-04-27 00:25 | 10.23785 | -75.49552 | 11040 ft | 368 kts | 188° |
| 2026-04-27 00:25 | 10.21234 | -75.49918 | 11597 ft | 373 kts | 188° |
| 2026-04-27 00:26 | 10.18653 | -75.50286 | 12216 ft | 375 kts | 188° |
| 2026-04-27 00:26 | 10.16054 | -75.50656 | 12831 ft | 378 kts | 188° |
| 2026-04-27 00:26 | 10.13442 | -75.51029 | 13425 ft | 382 kts | 188° |
| 2026-04-27 00:26 | 10.10802 | -75.51408 | 13989 ft | 384 kts | 188° |
| 2026-04-27 00:27 | 10.08153 | -75.51790 | 14528 ft | 386 kts | 188° |
| 2026-04-27 00:27 | 10.05512 | -75.52173 | 15014 ft | 389 kts | 188° |
| 2026-04-27 00:27 | 10.02820 | -75.52563 | 15501 ft | 392 kts | 188° |
| 2026-04-27 00:27 | 10.00114 | -75.52954 | 16002 ft | 394 kts | 188° |
| 2026-04-27 00:28 | 9.97385 | -75.53344 | 16482 ft | 397 kts | 188° |
| 2026-04-27 00:28 | 9.94635 | -75.53738 | 16918 ft | 400 kts | 188° |
| 2026-04-27 00:28 | 9.91869 | -75.54133 | 17390 ft | 403 kts | 188° |
| 2026-04-27 00:28 | 9.89090 | -75.54529 | 17861 ft | 405 kts | 188° |
| 2026-04-27 00:29 | 9.86282 | -75.54927 | 18272 ft | 409 kts | 188° |
| 2026-04-27 00:29 | 9.83461 | -75.55330 | 18640 ft | 411 kts | 188° |
| 2026-04-27 00:29 | 9.80617 | -75.55736 | 19018 ft | 414 kts | 188° |
| 2026-04-27 00:29 | 9.77761 | -75.56143 | 19399 ft | 416 kts | 188° |
| 2026-04-27 00:30 | 9.74881 | -75.56554 | 19773 ft | 418 kts | 188° |
| 2026-04-27 00:30 | 9.72030 | -75.56949 | 20129 ft | 420 kts | 186° |
| 2026-04-27 00:30 | 9.69100 | -75.56968 | 20471 ft | 423 kts | 178° |
| 2026-04-27 00:30 | 9.66153 | -75.56854 | 20843 ft | 425 kts | 178° |
| 2026-04-27 00:31 | 9.63182 | -75.56735 | 21203 ft | 427 kts | 178° |
| 2026-04-27 00:31 | 9.60203 | -75.56613 | 21554 ft | 430 kts | 178° |
| 2026-04-27 00:31 | 9.57208 | -75.56488 | 21904 ft | 432 kts | 178° |
| 2026-04-27 00:31 | 9.54189 | -75.56363 | 22243 ft | 434 kts | 178° |
| 2026-04-27 00:32 | 9.51165 | -75.56238 | 22592 ft | 436 kts | 178° |
| 2026-04-27 00:32 | 9.48121 | -75.56114 | 22929 ft | 438 kts | 178° |
| 2026-04-27 00:32 | 9.45100 | -75.55989 | 23254 ft | 440 kts | 178° |
| 2026-04-27 00:32 | 9.42035 | -75.55859 | 23545 ft | 442 kts | 178° |
| 2026-04-27 00:33 | 9.38952 | -75.55728 | 23807 ft | 444 kts | 178° |
| 2026-04-27 00:33 | 9.35857 | -75.55597 | 24072 ft | 446 kts | 178° |
| 2026-04-27 00:33 | 9.32753 | -75.55472 | 24337 ft | 447 kts | 178° |
| 2026-04-27 00:33 | 9.29634 | -75.55348 | 24600 ft | 449 kts | 178° |
| 2026-04-27 00:34 | 9.26509 | -75.55220 | 24863 ft | 450 kts | 178° |
| 2026-04-27 00:34 | 9.23368 | -75.55091 | 25134 ft | 452 kts | 178° |
| 2026-04-27 00:34 | 9.20218 | -75.54962 | 25396 ft | 453 kts | 178° |
| 2026-04-27 00:34 | 9.17063 | -75.54832 | 25661 ft | 455 kts | 178° |
| 2026-04-27 00:35 | 9.13897 | -75.54701 | 25939 ft | 456 kts | 178° |
| 2026-04-27 00:35 | 9.10765 | -75.54573 | 26205 ft | 457 kts | 178° |
| 2026-04-27 00:35 | 9.07588 | -75.54444 | 26459 ft | 458 kts | 178° |
| 2026-04-27 00:35 | 9.04397 | -75.54315 | 26707 ft | 459 kts | 178° |
| 2026-04-27 00:36 | 9.01197 | -75.54184 | 26956 ft | 460 kts | 178° |
| 2026-04-27 00:36 | 8.97993 | -75.54051 | 27195 ft | 462 kts | 178° |
| 2026-04-27 00:36 | 8.94776 | -75.53917 | 27443 ft | 463 kts | 178° |
| 2026-04-27 00:36 | 8.91557 | -75.53784 | 27680 ft | 464 kts | 178° |
| 2026-04-27 00:37 | 8.88321 | -75.53652 | 27920 ft | 466 kts | 178° |
| 2026-04-27 00:37 | 8.85083 | -75.53520 | 28179 ft | 466 kts | 178° |
| 2026-04-27 00:37 | 8.81847 | -75.53386 | 28538 ft | 464 kts | 177° |
| 2026-04-27 00:37 | 8.78623 | -75.53252 | 28903 ft | 463 kts | 177° |
| 2026-04-27 00:38 | 8.75406 | -75.53120 | 29267 ft | 461 kts | 177° |
| 2026-04-27 00:38 | 8.72204 | -75.52990 | 29628 ft | 460 kts | 177° |
| 2026-04-27 00:38 | 8.69010 | -75.52863 | 29984 ft | 459 kts | 177° |
| 2026-04-27 00:38 | 8.65822 | -75.52734 | 30298 ft | 457 kts | 177° |
| 2026-04-27 00:39 | 8.62686 | -75.52607 | 30598 ft | 456 kts | 177° |
| 2026-04-27 00:39 | 8.59517 | -75.52478 | 30899 ft | 455 kts | 177° |
| 2026-04-27 00:39 | 8.56352 | -75.52348 | 31196 ft | 454 kts | 177° |
| 2026-04-27 00:39 | 8.53203 | -75.52216 | 31495 ft | 453 kts | 177° |
| 2026-04-27 00:40 | 8.50047 | -75.52085 | 31817 ft | 452 kts | 178° |
| 2026-04-27 00:40 | 8.46904 | -75.51958 | 32112 ft | 451 kts | 178° |
| 2026-04-27 00:40 | 8.43775 | -75.51831 | 32408 ft | 450 kts | 178° |
| 2026-04-27 00:40 | 8.40634 | -75.51702 | 32665 ft | 451 kts | 178° |
| 2026-04-27 00:41 | 8.37507 | -75.51448 | 32932 ft | 451 kts | 173° |
| 2026-04-27 00:41 | 8.34400 | -75.51038 | 33226 ft | 450 kts | 172° |
| 2026-04-27 00:41 | 8.31301 | -75.50590 | 33522 ft | 449 kts | 172° |
| 2026-04-27 00:41 | 8.28251 | -75.50128 | 33816 ft | 449 kts | 172° |
| 2026-04-27 00:42 | 8.25168 | -75.49656 | 34093 ft | 448 kts | 172° |
| 2026-04-27 00:42 | 8.22093 | -75.49189 | 34381 ft | 447 kts | 172° |
| 2026-04-27 00:42 | 8.18981 | -75.48725 | 34659 ft | 446 kts | 172° |
| 2026-04-27 00:42 | 8.15948 | -75.48280 | 34888 ft | 445 kts | 172° |
| 2026-04-27 00:43 | 8.09792 | -75.47391 | 34967 ft | 448 kts | 172° |
| 2026-04-27 00:43 | 8.03600 | -75.46497 | 34983 ft | 451 kts | 172° |
| 2026-04-27 00:44 | 7.97385 | -75.45589 | 34986 ft | 452 kts | 172° |
| 2026-04-27 00:44 | 7.91165 | -75.44677 | 35005 ft | 452 kts | 172° |
| 2026-04-27 00:45 | 7.84985 | -75.43777 | 35005 ft | 452 kts | 172° |
| 2026-04-27 00:45 | 7.78749 | -75.42867 | 35030 ft | 452 kts | 172° |
| 2026-04-27 00:46 | 7.72519 | -75.41958 | 35033 ft | 452 kts | 172° |
| 2026-04-27 00:46 | 7.66298 | -75.41051 | 35032 ft | 452 kts | 172° |
| 2026-04-27 00:47 | 7.60070 | -75.40139 | 35064 ft | 452 kts | 172° |
| 2026-04-27 00:47 | 7.53846 | -75.39231 | 35065 ft | 452 kts | 172° |
| 2026-04-27 00:48 | 7.47656 | -75.38330 | 35098 ft | 452 kts | 172° |
| 2026-04-27 00:48 | 7.41438 | -75.37426 | 35099 ft | 452 kts | 172° |
| 2026-04-27 00:49 | 7.35208 | -75.36522 | 35102 ft | 452 kts | 172° |
| 2026-04-27 00:49 | 7.28985 | -75.35624 | 35136 ft | 452 kts | 172° |
| 2026-04-27 00:50 | 7.19646 | -75.34263 | 35122 ft | 452 kts | 172° |
| 2026-04-27 00:51 | 7.13467 | -75.33365 | 35119 ft | 451 kts | 172° |